Les Cayes, Haiti
Current Conditions -  °F | °C
As of 10:56 PM on Saturday 22 Nov 2014 (Local Time) from MUGM Reporting Station
Clear Clear  
Wind Chill: 79°   Ceiling: Unl
Heat Index: 82°   Visibility: 6mi
Dew Point: 72°   Wind: 6mph
Humidity: 79%   Direction: NA
Pressure: 30"   Gusts: NA
Location:  18.2°N, 73.75°W
Report Text: MUGM 230356Z VRB05KT 9999 CLR 26/22 A3000 RMK SLP157 T02610222
Loading
Personal Weather Stations






























Interactive Weather Map New forecast layout! Learn more

10-Day Weather Forecast

Advertisements
Track Severe Weather on mobile